Time;durP1;ratioP1;P1;durP2;ratioP2;P2;SDS_P1;SDS_P2;PMS_P1;PMS_P2;Temp;Humidity;BMP_temperature;BMP_pressure;BME280_temperature;BME280_humidity;BME280_pressure;Samples;Min_cycle;Max_cycle;Signal;HPM_P1;HPM_P2
2023/02/01 00:01:45;;;;;;;24.33;4.07;;;5.80;99.90;;;;;;5010116;28;20049;-67
2023/02/01 00:04:11;;;;;;;21.25;3.88;;;5.80;99.90;;;;;;5008864;28;20042;-67
2023/02/01 00:06:37;;;;;;;30.30;4.00;;;5.80;99.90;;;;;;5010585;28;20096;-67
2023/02/01 00:09:03;;;;;;;23.83;3.95;;;5.80;99.90;;;;;;4993547;28;20057;-67
2023/02/01 00:11:29;;;;;;;22.42;4.28;;;5.80;99.90;;;;;;4992116;28;20077;-68
2023/02/01 00:13:54;;;;;;;24.88;4.38;;;5.80;99.90;;;;;;5011218;28;20367;-68
2023/02/01 00:16:26;;;;;;;23.38;4.13;;;5.80;99.90;;;;;;5008826;28;20402;-68
2023/02/01 00:19:00;;;;;;;21.73;4.18;;;5.80;99.90;;;;;;4988958;28;20046;-67
2023/02/01 00:21:26;;;;;;;22.67;3.75;;;5.80;99.90;;;;;;5010161;28;20600;-67
2023/02/01 00:23:52;;;;;;;25.02;3.20;;;5.80;99.90;;;;;;4993570;28;20207;-67
2023/02/01 00:26:30;;;;;;;19.70;3.70;;;5.80;99.90;;;;;;5010545;28;20045;-68
2023/02/01 00:28:55;;;;;;;24.77;4.32;;;5.80;99.90;;;;;;5010934;28;20096;-67
2023/02/01 00:31:21;;;;;;;22.23;4.07;;;5.80;99.90;;;;;;4976926;28;20071;-68
2023/02/01 00:33:48;;;;;;;23.88;4.85;;;5.90;99.90;;;;;;5011442;28;20124;-67
2023/02/01 00:36:14;;;;;;;21.92;3.70;;;5.80;99.90;;;;;;5010148;28;20116;-67
2023/02/01 00:38:40;;;;;;;21.55;3.92;;;5.90;99.90;;;;;;5010101;28;20037;-67
2023/02/01 00:41:14;;;;;;;19.23;3.72;;;5.90;99.90;;;;;;5009188;28;20053;-67
2023/02/01 00:43:40;;;;;;;18.08;3.95;;;5.90;99.90;;;;;;4988358;28;20049;-67
2023/02/01 00:46:06;;;;;;;27.63;4.22;;;6.00;99.90;;;;;;4993363;28;20081;-68
2023/02/01 00:48:32;;;;;;;24.27;4.15;;;6.00;99.90;;;;;;4991426;28;20065;-67
2023/02/01 00:51:04;;;;;;;21.02;3.95;;;5.90;99.90;;;;;;4992641;28;20382;-67
2023/02/01 00:53:30;;;;;;;23.30;4.40;;;6.00;99.90;;;;;;4989705;28;20132;-67
2023/02/01 00:55:56;;;;;;;21.45;3.85;;;6.00;99.90;;;;;;4992720;28;20044;-67
2023/02/01 00:58:25;;;;;;;21.05;4.35;;;6.00;99.90;;;;;;4992816;28;20482;-67
2023/02/01 01:01:10;;;;;;;19.23;3.17;;;6.00;99.90;;;;;;5010902;28;20104;-67
2023/02/01 01:03:38;;;;;;;;;;;6.00;99.90;;;;;;5010521;28;20494;-67
2023/02/01 01:06:07;;;;;;;24.50;4.47;;;5.90;99.90;;;;;;5010509;28;19948;-67
2023/02/01 01:08:33;;;;;;;29.17;4.40;;;6.00;99.90;;;;;;5009741;28;20455;-67
2023/02/01 01:11:03;;;;;;;21.50;4.93;;;6.00;99.90;;;;;;5009965;28;20030;-67
2023/02/01 01:13:29;;;;;;;24.80;3.45;;;6.00;99.90;;;;;;4992237;28;20045;-67
2023/02/01 01:15:54;;;;;;;20.08;4.15;;;6.00;99.90;;;;;;5008031;28;20045;-67
2023/02/01 01:18:20;;;;;;;28.48;4.88;;;6.00;99.90;;;;;;4993061;28;20034;-67
2023/02/01 01:20:47;;;;;;;25.25;4.80;;;6.10;99.90;;;;;;5010064;28;20046;-67
2023/02/01 01:23:13;;;;;;;19.98;4.00;;;6.10;99.90;;;;;;4981412;28;20112;-67
2023/02/01 01:25:39;;;;;;;20.63;3.75;;;6.10;99.90;;;;;;5009520;28;20037;-67
2023/02/01 01:28:06;;;;;;;25.33;5.18;;;6.10;99.90;;;;;;4993091;28;20042;-67
2023/02/01 01:30:33;;;;;;;23.08;4.25;;;6.10;99.90;;;;;;5010313;28;20091;-67
2023/02/01 01:32:58;;;;;;;23.13;3.80;;;6.10;99.90;;;;;;5009713;28;20176;-67
2023/02/01 01:35:24;;;;;;;26.48;3.58;;;6.10;99.90;;;;;;4991083;28;20553;-67
2023/02/01 01:37:50;;;;;;;22.13;4.00;;;6.10;99.90;;;;;;5008920;28;20086;-67
2023/02/01 01:40:16;;;;;;;24.92;4.85;;;6.10;99.90;;;;;;5010477;28;20068;-67
2023/02/01 01:42:43;;;;;;;18.27;3.55;;;6.10;99.90;;;;;;5010391;28;20470;-67
2023/02/01 01:45:21;;;;;;;19.85;4.95;;;6.10;99.90;;;;;;4995969;28;20034;-67
2023/02/01 01:47:56;;;;;;;22.42;3.97;;;6.10;99.90;;;;;;5013548;28;20076;-67
2023/02/01 01:50:38;;;;;;;28.98;4.55;;;6.10;99.90;;;;;;5013584;28;20117;-67
2023/02/01 01:53:07;;;;;;;24.65;3.85;;;6.10;99.90;;;;;;4993640;28;20080;-67
2023/02/01 01:55:37;;;;;;;24.55;3.70;;;6.10;99.90;;;;;;5013067;28;20494;-67
2023/02/01 01:58:07;;;;;;;19.95;3.83;;;6.20;99.90;;;;;;5014078;28;20038;-67
2023/02/01 02:00:34;;;;;;;22.63;3.97;;;6.10;99.90;;;;;;5012442;28;20076;-67
2023/02/01 02:03:29;;;;;;;30.77;5.40;;;6.10;99.90;;;;;;5013463;28;20073;-68
2023/02/01 02:05:58;;;;;;;21.48;3.90;;;6.10;99.90;;;;;;4994912;28;20041;-67
2023/02/01 02:08:27;;;;;;;21.42;4.07;;;6.10;99.90;;;;;;5013766;28;20080;-68
2023/02/01 02:10:59;;;;;;;21.20;4.45;;;6.10;99.90;;;;;;4994215;28;20077;-69
2023/02/01 02:13:37;;;;;;;20.52;4.28;;;6.10;99.90;;;;;;4997409;28;20080;-69
2023/02/01 02:16:36;;;;;;;26.67;3.75;;;6.00;99.90;;;;;;5014587;28;20077;-70
2023/02/01 02:19:31;;;;;;;22.75;4.00;;;6.00;99.90;;;;;;5007130;28;20041;-70
2023/02/01 02:22:15;;;;;;;24.60;4.40;;;5.90;99.90;;;;;;4997544;28;20037;-69
2023/02/01 02:25:15;;;;;;;23.75;4.05;;;5.90;99.90;;;;;;5012339;28;20458;-72
2023/02/01 02:27:50;;;;;;;23.95;4.63;;;5.80;99.90;;;;;;4998171;28;20107;-71
2023/02/01 02:30:40;;;;;;;27.10;4.22;;;5.80;99.90;;;;;;4995443;28;20056;-73
2023/02/01 02:33:44;;;;;;;23.00;4.10;;;5.70;99.90;;;;;;5011776;28;20038;-71
2023/02/01 02:36:47;;;;;;;20.35;3.95;;;5.70;99.90;;;;;;4988682;28;20502;-72
2023/02/01 02:39:24;;;;;;;27.60;5.32;;;5.70;99.90;;;;;;4993745;28;20048;-72
2023/02/01 02:48:15;;;;;;;21.50;4.13;;;5.60;99.90;;;;;;5001040;28;20044;-72
2023/02/01 03:04:58;;;;;;;;;;;5.60;99.90;;;;;;4998179;28;20088;-73
2023/02/01 03:07:45;;;;;;;28.13;4.33;;;5.60;99.90;;;;;;4994317;28;19922;-73
2023/02/01 03:10:35;;;;;;;29.42;3.70;;;5.50;99.90;;;;;;4998535;28;20153;-73
2023/02/01 03:13:26;;;;;;;25.63;3.83;;;5.50;99.90;;;;;;4997705;28;20034;-72
2023/02/01 03:16:01;;;;;;;21.60;3.75;;;5.60;99.90;;;;;;4992912;28;20067;-73
2023/02/01 03:18:31;;;;;;;;;;;5.50;99.90;;;;;;5008556;28;20034;-73
2023/02/01 03:21:00;;;;;;;26.92;4.03;;;5.50;99.90;;;;;;5008455;28;19961;-72
2023/02/01 03:23:30;;;;;;;27.33;4.40;;;5.60;99.90;;;;;;5008838;28;20038;-72
2023/02/01 03:25:58;;;;;;;27.85;3.75;;;5.60;99.90;;;;;;5008409;28;20037;-72
2023/02/01 03:28:27;;;;;;;26.83;4.53;;;5.60;99.90;;;;;;5005932;28;20049;-72
2023/02/01 03:30:53;;;;;;;28.15;4.72;;;5.60;99.90;;;;;;5004937;28;20060;-71
2023/02/01 03:33:24;;;;;;;24.83;4.38;;;5.70;99.90;;;;;;5004639;28;20042;-72
2023/02/01 03:36:00;;;;;;;29.52;4.35;;;5.70;99.90;;;;;;5002698;28;20547;-71
2023/02/01 03:39:05;;;;;;;21.90;3.95;;;5.70;99.90;;;;;;5001103;28;20034;-72
2023/02/01 03:41:43;;;;;;;23.63;4.00;;;5.70;99.90;;;;;;4999688;28;20413;-71
2023/02/01 03:44:33;;;;;;;24.80;4.38;;;5.80;99.90;;;;;;4998200;28;20045;-72
2023/02/01 03:47:01;;;;;;;25.15;3.67;;;5.80;99.90;;;;;;5000348;28;20706;-71
2023/02/01 03:49:32;;;;;;;22.48;3.63;;;5.80;99.90;;;;;;4996836;28;20038;-71
2023/02/01 03:51:59;;;;;;;20.98;3.78;;;5.80;99.90;;;;;;4998162;28;20172;-71
2023/02/01 03:54:27;;;;;;;27.45;4.50;;;5.80;99.90;;;;;;4998651;28;20116;-71
2023/02/01 03:56:56;;;;;;;24.65;4.60;;;5.80;99.90;;;;;;5009176;28;20052;-70
2023/02/01 03:59:22;;;;;;;16.48;4.65;;;5.90;99.90;;;;;;4997247;28;20033;-71
2023/02/01 04:01:47;;;;;;;23.27;4.70;;;5.90;99.90;;;;;;4996990;28;20120;-71
2023/02/01 04:04:19;;;;;;;23.25;4.32;;;5.90;99.90;;;;;;4996492;28;20037;-71
2023/02/01 04:06:49;;;;;;;26.65;5.03;;;5.90;99.90;;;;;;4995076;28;20437;-74
2023/02/01 04:09:15;;;;;;;25.17;4.50;;;5.90;99.90;;;;;;4994106;28;20454;-71
2023/02/01 04:11:41;;;;;;;23.48;4.10;;;5.90;99.90;;;;;;4990912;28;20052;-72
2023/02/01 04:14:07;;;;;;;22.45;4.38;;;5.80;99.90;;;;;;5004602;28;20354;-72
2023/02/01 04:16:33;;;;;;;26.88;4.60;;;5.80;99.90;;;;;;4993140;28;20226;-73
2023/02/01 04:18:59;;;;;;;27.70;4.30;;;5.80;99.90;;;;;;4990366;28;20033;-73
2023/02/01 04:21:28;;;;;;;17.88;3.15;;;5.70;99.90;;;;;;4991127;28;20107;-73
2023/02/01 04:24:00;;;;;;;27.00;4.40;;;5.80;99.90;;;;;;4990003;28;20052;-72
2023/02/01 04:26:36;;;;;;;29.88;4.70;;;5.70;99.90;;;;;;4992894;28;20073;-73
2023/02/01 04:29:13;;;;;;;25.52;4.55;;;5.70;99.90;;;;;;5002586;28;20048;-72
2023/02/01 04:31:49;;;;;;;29.00;5.07;;;5.70;99.90;;;;;;4991056;28;20046;-72
2023/02/01 04:34:27;;;;;;;25.95;4.60;;;5.70;99.90;;;;;;4986980;28;20049;-72
2023/02/01 04:37:02;;;;;;;19.38;3.53;;;5.70;99.90;;;;;;4985881;28;20125;-73
2023/02/01 04:39:36;;;;;;;27.13;4.97;;;5.70;99.90;;;;;;4991417;28;20041;-72
2023/02/01 04:42:05;;;;;;;32.53;5.63;;;5.70;99.90;;;;;;5011933;28;20040;-72
2023/02/01 04:44:31;;;;;;;26.20;4.10;;;5.70;99.90;;;;;;5003442;28;20490;-72
2023/02/01 04:46:57;;;;;;;29.88;4.60;;;5.70;99.90;;;;;;5005875;28;20033;-72
2023/02/01 04:49:22;;;;;;;23.20;4.20;;;5.70;99.90;;;;;;5005215;28;20654;-73
2023/02/01 04:51:48;;;;;;;21.88;3.90;;;5.80;99.90;;;;;;5007515;28;20045;-74
2023/02/01 04:54:14;;;;;;;25.10;4.57;;;5.80;99.90;;;;;;5008384;28;20125;-72
2023/02/01 04:56:40;;;;;;;23.75;4.03;;;5.80;99.90;;;;;;5028313;28;20052;-71
2023/02/01 04:59:06;;;;;;;24.73;4.43;;;5.80;99.90;;;;;;5014678;28;20037;-70
2023/02/01 05:01:32;;;;;;;26.50;4.30;;;5.80;99.90;;;;;;5011970;28;20093;-71
2023/02/01 05:03:58;;;;;;;21.52;4.20;;;5.80;99.90;;;;;;5014279;28;20121;-71
2023/02/01 05:06:24;;;;;;;21.70;4.28;;;5.80;99.90;;;;;;5013268;28;20025;-71
2023/02/01 05:08:50;;;;;;;18.52;3.65;;;5.70;99.90;;;;;;5014237;28;20032;-70
2023/02/01 05:14:00;;;;;;;20.08;3.15;;;5.70;99.90;;;;;;5012239;28;20049;-70
2023/02/01 05:16:26;;;;;;;19.30;3.58;;;5.60;99.90;;;;;;5012702;28;20033;-70
2023/02/01 05:18:52;;;;;;;17.83;3.83;;;5.60;99.90;;;;;;5012438;28;20049;-70
2023/02/01 05:21:18;;;;;;;26.13;3.55;;;5.60;99.90;;;;;;5008610;28;20513;-71
2023/02/01 05:26:28;;;;;;;23.73;3.70;;;5.70;99.90;;;;;;5006530;28;20065;-70
2023/02/01 05:28:54;;;;;;;19.00;3.55;;;5.80;99.90;;;;;;5008483;28;20042;-70
2023/02/01 05:31:20;;;;;;;22.15;3.80;;;5.80;99.90;;;;;;5007536;28;20038;-69
2023/02/01 05:33:46;;;;;;;18.10;2.95;;;5.80;99.90;;;;;;5004596;28;20050;-73
2023/02/01 05:36:12;;;;;;;21.05;3.80;;;5.80;99.90;;;;;;5001238;28;20045;-70
2023/02/01 05:38:38;;;;;;;19.13;3.60;;;5.90;99.90;;;;;;5001979;28;20038;-70
2023/02/01 05:41:04;;;;;;;19.67;3.30;;;5.90;99.90;;;;;;5000034;28;20057;-69
2023/02/01 05:43:29;;;;;;;18.83;3.58;;;6.00;99.90;;;;;;4998706;28;20308;-70
2023/02/01 05:45:55;;;;;;;23.10;3.65;;;6.00;99.90;;;;;;5000796;28;20042;-70
2023/02/01 05:48:21;;;;;;;15.48;2.60;;;6.00;99.90;;;;;;4999367;28;20030;-69
2023/02/01 05:50:46;;;;;;;17.83;3.40;;;6.00;99.90;;;;;;4997370;28;20117;-69
2023/02/01 05:53:13;;;;;;;21.83;4.32;;;6.10;99.90;;;;;;4996434;28;20091;-70
2023/02/01 05:55:39;;;;;;;17.98;3.47;;;6.10;99.90;;;;;;4997234;28;20030;-69
2023/02/01 05:58:05;;;;;;;19.75;3.83;;;6.10;99.90;;;;;;4996091;28;20087;-69
2023/02/01 06:00:31;;;;;;;24.08;4.47;;;6.10;99.90;;;;;;4999269;28;20108;-69
2023/02/01 06:02:57;;;;;;;20.48;4.07;;;6.10;99.90;;;;;;4998458;28;20045;-69
2023/02/01 06:05:23;;;;;;;17.85;3.33;;;6.20;99.90;;;;;;4997568;28;20041;-71
2023/02/01 06:07:52;;;;;;;22.75;3.38;;;6.20;99.90;;;;;;4997232;28;20049;-69
2023/02/01 06:10:18;;;;;;;16.23;3.75;;;6.10;99.90;;;;;;5014458;28;20042;-69
2023/02/01 06:12:44;;;;;;;21.88;4.40;;;6.20;99.90;;;;;;4996899;28;20100;-69
2023/02/01 06:15:12;;;;;;;22.08;3.65;;;6.20;99.90;;;;;;4997329;28;20061;-70
2023/02/01 06:17:38;;;;;;;21.08;3.33;;;6.20;99.90;;;;;;5014766;28;20084;-69
2023/02/01 06:20:06;;;;;;;21.02;3.70;;;6.10;99.90;;;;;;4996407;28;20540;-69
2023/02/01 06:22:32;;;;;;;21.05;3.13;;;6.10;99.90;;;;;;4995645;28;20494;-69
2023/02/01 06:24:58;;;;;;;17.60;3.35;;;6.10;99.90;;;;;;5013845;28;20509;-69
2023/02/01 06:27:25;;;;;;;18.48;3.33;;;6.10;99.90;;;;;;4996939;28;20049;-69
2023/02/01 06:29:50;;;;;;;20.85;4.32;;;6.10;99.90;;;;;;4997485;28;20589;-70
2023/02/01 06:32:17;;;;;;;24.02;4.22;;;6.10;99.90;;;;;;4999917;28;20077;-70
2023/02/01 06:34:43;;;;;;;19.23;3.40;;;6.10;99.90;;;;;;4998032;28;20398;-68
2023/02/01 06:37:11;;;;;;;18.17;4.50;;;6.20;99.90;;;;;;5015767;28;20042;-69
2023/02/01 06:39:37;;;;;;;21.42;3.97;;;6.20;99.90;;;;;;5014602;28;20050;-69
2023/02/01 06:42:03;;;;;;;25.98;5.75;;;6.20;99.90;;;;;;4998503;28;20041;-69
2023/02/01 06:44:29;;;;;;;20.63;3.92;;;6.20;99.90;;;;;;4995383;28;20038;-68
2023/02/01 06:46:55;;;;;;;24.63;4.15;;;6.20;99.90;;;;;;4994720;28;20115;-69
2023/02/01 06:49:21;;;;;;;21.40;4.10;;;6.20;99.90;;;;;;4991541;28;20453;-69
2023/02/01 06:51:46;;;;;;;21.00;3.67;;;6.20;99.90;;;;;;4992174;28;20471;-68
2023/02/01 06:54:12;;;;;;;22.15;4.80;;;6.20;99.90;;;;;;4967449;28;20087;-69
2023/02/01 06:56:38;;;;;;;25.05;3.97;;;6.20;99.90;;;;;;4993264;28;20046;-69
2023/02/01 06:59:07;;;;;;;19.58;3.65;;;6.20;99.90;;;;;;4991157;28;20030;-69
2023/02/01 07:01:33;;;;;;;25.73;4.85;;;6.30;99.90;;;;;;4992396;28;20049;-69
2023/02/01 07:03:59;;;;;;;25.02;3.78;;;6.30;99.90;;;;;;5012477;28;20120;-69
2023/02/01 07:06:25;;;;;;;22.13;3.22;;;6.30;99.90;;;;;;4989383;28;20046;-69
2023/02/01 07:08:51;;;;;;;14.80;3.47;;;6.30;99.90;;;;;;4995979;28;20577;-68
2023/02/01 07:11:18;;;;;;;19.38;3.47;;;6.20;99.90;;;;;;4994888;28;20112;-69
2023/02/01 07:13:45;;;;;;;23.20;4.25;;;6.30;99.90;;;;;;5011951;28;20121;-69
2023/02/01 07:16:13;;;;;;;23.05;3.95;;;6.30;99.90;;;;;;4995996;28;20053;-69
2023/02/01 07:18:39;;;;;;;24.13;4.18;;;6.30;99.90;;;;;;5012809;28;20108;-68
2023/02/01 07:21:05;;;;;;;20.48;3.90;;;6.30;99.90;;;;;;4995002;28;20049;-69
2023/02/01 07:23:31;;;;;;;20.60;3.97;;;6.30;99.90;;;;;;4994409;28;20046;-69
2023/02/01 07:26:03;;;;;;;23.67;3.88;;;6.30;99.90;;;;;;4982895;28;20099;-69
2023/02/01 07:28:30;;;;;;;18.05;3.83;;;6.30;99.90;;;;;;4996394;28;20125;-69
2023/02/01 07:31:05;;;;;;;22.05;3.42;;;6.30;99.90;;;;;;4991719;28;20482;-70
2023/02/01 07:33:31;;;;;;;19.60;3.40;;;6.30;99.90;;;;;;5013225;28;20044;-69
2023/02/01 07:36:01;;;;;;;21.85;4.22;;;6.40;99.90;;;;;;5012232;28;20527;-69
2023/02/01 07:38:28;;;;;;;24.00;4.65;;;6.30;99.90;;;;;;5012838;28;20478;-68
2023/02/01 07:40:58;;;;;;;25.85;4.32;;;6.40;99.90;;;;;;4995169;28;20098;-69
2023/02/01 07:43:24;;;;;;;21.38;4.05;;;6.30;99.90;;;;;;5013133;28;20044;-69
2023/02/01 07:45:52;;;;;;;20.90;3.30;;;6.40;99.90;;;;;;4995765;28;20414;-70
2023/02/01 07:48:18;;;;;;;19.75;3.72;;;6.40;99.90;;;;;;4995168;28;20521;-70
2023/02/01 07:50:43;;;;;;;18.48;3.45;;;6.30;99.90;;;;;;4994278;28;20081;-69
2023/02/01 07:53:09;;;;;;;21.10;3.33;;;6.30;99.90;;;;;;4994373;28;20042;-69
2023/02/01 07:55:38;;;;;;;16.63;4.32;;;6.30;99.90;;;;;;4994588;28;20381;-69
2023/02/01 07:58:03;;;;;;;18.20;3.88;;;6.30;99.90;;;;;;4994651;28;20121;-69
2023/02/01 08:03:13;;;;;;;17.57;3.20;;;6.20;99.90;;;;;;4994743;28;20050;-70
2023/02/01 08:05:39;;;;;;;21.77;3.17;;;6.20;99.90;;;;;;4994585;28;20482;-69
2023/02/01 08:08:05;;;;;;;18.17;3.72;;;6.20;99.90;;;;;;5010528;28;20048;-69
2023/02/01 08:10:31;;;;;;;18.50;3.22;;;6.20;99.90;;;;;;5011151;28;20046;-69
2023/02/01 08:13:00;;;;;;;24.98;4.45;;;6.10;99.90;;;;;;4994385;28;20128;-69
2023/02/01 08:15:29;;;;;;;17.00;3.28;;;6.10;99.90;;;;;;5009181;28;20092;-69
2023/02/01 08:17:55;;;;;;;19.58;3.47;;;6.10;99.90;;;;;;5011773;28;20029;-69
2023/02/01 08:20:28;;;;;;;21.88;3.60;;;6.10;99.90;;;;;;4994341;28;20085;-69
2023/02/01 08:22:54;;;;;;;15.65;3.05;;;6.10;99.90;;;;;;4989342;28;20081;-69
2023/02/01 08:25:20;;;;;;;19.90;3.30;;;6.10;99.90;;;;;;4994393;28;20517;-69
2023/02/01 08:27:46;;;;;;;19.90;3.80;;;6.20;99.90;;;;;;4993938;28;20044;-69
2023/02/01 08:30:12;;;;;;;22.90;3.75;;;6.20;99.90;;;;;;4993053;28;20042;-69
2023/02/01 08:32:38;;;;;;;23.15;4.38;;;6.20;99.90;;;;;;4993496;28;20034;-69
2023/02/01 08:35:04;;;;;;;17.98;3.33;;;6.20;99.90;;;;;;4993152;28;20112;-69
2023/02/01 08:37:30;;;;;;;22.65;3.70;;;6.30;99.90;;;;;;4993988;28;20034;-69
2023/02/01 08:39:56;;;;;;;18.75;4.13;;;6.30;99.90;;;;;;4994258;28;20643;-69
2023/02/01 08:45:10;;;;;;;23.70;3.60;;;6.50;99.90;;;;;;4984023;28;20403;-69
2023/02/01 08:47:35;;;;;;;18.40;3.45;;;6.40;99.90;;;;;;4994300;28;20633;-69
2023/02/01 08:50:01;;;;;;;20.42;3.97;;;6.50;99.90;;;;;;4993666;28;20050;-69
2023/02/01 08:52:27;;;;;;;20.35;4.25;;;6.50;99.90;;;;;;4993219;28;20494;-69
2023/02/01 08:54:53;;;;;;;20.80;3.72;;;6.50;99.90;;;;;;4966265;28;20455;-69
2023/02/01 08:57:19;;;;;;;21.52;4.63;;;6.50;99.90;;;;;;5010369;28;20038;-69
2023/02/01 08:59:44;;;;;;;23.58;4.30;;;6.50;99.90;;;;;;5004097;28;20462;-69
2023/02/01 09:02:16;;;;;;;23.35;4.68;;;6.60;99.90;;;;;;4991338;28;20049;-69
2023/02/01 09:04:42;;;;;;;21.98;4.82;;;6.60;99.90;;;;;;5010586;28;20042;-69
2023/02/01 09:07:10;;;;;;;21.83;3.65;;;6.60;99.90;;;;;;4993767;28;20030;-68
2023/02/01 09:09:36;;;;;;;19.30;4.05;;;6.60;99.90;;;;;;4993135;28;20504;-68
2023/02/01 09:12:03;;;;;;;20.23;3.95;;;6.70;99.90;;;;;;5011005;28;20433;-68
2023/02/01 09:14:29;;;;;;;16.75;3.95;;;6.70;99.90;;;;;;4993138;28;20049;-68
2023/02/01 09:16:55;;;;;;;17.88;3.17;;;6.70;99.90;;;;;;5010593;28;20563;-68
2023/02/01 09:19:21;;;;;;;22.85;4.05;;;6.70;99.90;;;;;;4991361;28;20126;-68
2023/02/01 09:21:47;;;;;;;24.88;4.00;;;6.70;99.90;;;;;;5011074;28;20477;-68
2023/02/01 09:24:12;;;;;;;18.25;4.18;;;6.70;99.90;;;;;;5010659;28;20096;-68
2023/02/01 09:26:38;;;;;;;20.65;3.83;;;6.70;99.90;;;;;;5010763;28;20044;-68
2023/02/01 09:29:06;;;;;;;14.65;3.50;;;6.70;99.90;;;;;;5010518;28;20044;-68
2023/02/01 09:31:32;;;;;;;23.23;3.72;;;6.70;99.90;;;;;;4993037;28;20046;-68
2023/02/01 09:33:58;;;;;;;15.50;3.17;;;6.70;99.90;;;;;;4993096;28;20053;-68
2023/02/01 09:36:24;;;;;;;18.15;3.40;;;6.70;99.90;;;;;;4992459;28;20065;-68
2023/02/01 09:38:51;;;;;;;19.83;3.05;;;6.70;99.90;;;;;;4992730;28;20045;-69
2023/02/01 09:41:59;;;;;;;17.50;3.25;;;6.70;99.90;;;;;;5010423;28;20046;-69
2023/02/01 09:45:02;;;;;;;23.33;4.38;;;6.70;99.90;;;;;;4981173;28;20119;-68
2023/02/01 09:47:29;;;;;;;21.17;4.03;;;6.70;99.90;;;;;;5010717;28;20406;-68
2023/02/01 09:50:06;;;;;;;22.10;4.25;;;6.70;99.90;;;;;;4992016;28;20033;-68
2023/02/01 09:52:47;;;;;;;20.77;3.88;;;6.70;99.90;;;;;;4983586;28;20093;-68
2023/02/01 09:55:19;;;;;;;18.73;3.63;;;6.70;99.90;;;;;;5010829;28;20069;-68
2023/02/01 09:58:08;;;;;;;19.00;3.38;;;6.60;99.90;;;;;;5011225;28;20736;-69
2023/02/01 10:00:37;;;;;;;22.20;3.75;;;6.60;99.90;;;;;;4995717;28;20045;-69
2023/02/01 10:03:04;;;;;;;22.55;3.65;;;6.50;99.90;;;;;;4996428;28;20050;-70
2023/02/01 10:06:01;;;;;;;17.45;2.83;;;6.50;99.90;;;;;;5022604;28;20037;-70
2023/02/01 10:08:57;;;;;;;22.60;3.72;;;6.50;99.90;;;;;;5006717;28;20053;-70
2023/02/01 10:11:50;;;;;;;18.13;3.00;;;6.40;99.90;;;;;;5005104;28;20524;-69
2023/02/01 10:14:44;;;;;;;21.92;2.95;;;6.30;99.90;;;;;;5005960;28;20030;-70
2023/02/01 10:17:35;;;;;;;17.38;2.85;;;6.30;99.90;;;;;;4988600;28;20042;-69
2023/02/01 10:20:19;;;;;;;17.02;3.55;;;6.30;99.90;;;;;;5005134;28;20073;-69
2023/02/01 10:22:50;;;;;;;20.00;3.10;;;6.30;99.90;;;;;;5025025;28;20038;-70
2023/02/01 10:25:22;;;;;;;18.08;3.80;;;6.30;99.90;;;;;;5002663;28;20038;-69
2023/02/01 10:27:49;;;;;;;20.15;3.38;;;6.30;99.90;;;;;;5027285;28;20061;-70
2023/02/01 10:30:27;;;;;;;16.30;3.30;;;6.20;99.90;;;;;;5024250;28;20034;-70
2023/02/01 10:33:17;;;;;;;19.38;3.38;;;6.30;99.90;;;;;;5014279;28;20030;-70
2023/02/01 10:35:46;;;;;;;19.05;3.67;;;6.30;99.90;;;;;;5024214;28;20086;-69
2023/02/01 10:38:27;;;;;;;17.20;3.35;;;6.30;99.90;;;;;;5027732;28;20118;-70
2023/02/01 10:41:11;;;;;;;18.10;3.30;;;6.30;99.90;;;;;;5009241;28;20061;-70
2023/02/01 10:43:38;;;;;;;14.00;2.75;;;6.30;99.90;;;;;;5029722;28;20089;-70
2023/02/01 10:46:04;;;;;;;16.42;3.20;;;6.20;99.90;;;;;;5028912;28;20041;-70
2023/02/01 10:48:31;;;;;;;13.13;2.42;;;6.20;99.90;;;;;;5025039;28;20072;-69
2023/02/01 10:51:06;;;;;;;20.42;3.25;;;6.20;99.90;;;;;;5007700;28;20042;-69
2023/02/01 10:53:42;;;;;;;15.13;3.47;;;6.20;99.90;;;;;;5007148;28;20500;-69
2023/02/01 10:56:12;;;;;;;18.58;3.17;;;6.30;99.90;;;;;;5021855;28;20073;-69
2023/02/01 10:58:46;;;;;;;17.00;3.13;;;6.30;99.90;;;;;;5025977;28;20494;-69
2023/02/01 11:01:46;;;;;;;16.20;3.08;;;6.30;99.90;;;;;;5024758;28;20112;-69
2023/02/01 11:04:20;;;;;;;18.25;2.85;;;6.40;99.90;;;;;;5022299;28;20038;-69
2023/02/01 11:07:12;;;;;;;17.92;2.80;;;6.30;99.90;;;;;;5008183;28;20054;-69
2023/02/01 11:09:42;;;;;;;20.55;4.13;;;6.40;99.90;;;;;;5015230;28;20088;-69
2023/02/01 11:12:32;;;;;;;22.75;4.10;;;6.40;99.90;;;;;;5018733;28;20102;-69
2023/02/01 11:15:21;;;;;;;19.55;3.78;;;6.40;99.90;;;;;;4997071;28;20394;-68
2023/02/01 11:17:51;;;;;;;18.98;3.05;;;6.40;99.90;;;;;;4998189;28;20046;-69
2023/02/01 11:20:32;;;;;;;20.45;3.13;;;6.40;99.90;;;;;;5014710;28;20046;-68
2023/02/01 11:22:58;;;;;;;19.65;3.67;;;6.50;99.90;;;;;;4993965;28;20042;-69
2023/02/01 11:25:25;;;;;;;17.92;3.85;;;6.50;99.90;;;;;;5016140;28;20449;-69
2023/02/01 11:27:53;;;;;;;22.33;3.97;;;6.50;99.90;;;;;;4998435;28;20041;-69
2023/02/01 11:30:53;;;;;;;18.90;3.17;;;6.60;99.90;;;;;;4999092;28;20042;-68
2023/02/01 11:33:24;;;;;;;17.25;3.53;;;6.60;99.90;;;;;;4984218;28;20050;-69
2023/02/01 11:35:51;;;;;;;19.73;3.30;;;6.70;99.90;;;;;;5017716;28;20079;-69
2023/02/01 11:38:27;;;;;;;20.05;3.47;;;6.70;99.90;;;;;;5018426;28;20046;-69
2023/02/01 11:40:53;;;;;;;20.63;3.33;;;6.70;99.90;;;;;;5021315;28;20029;-69
2023/02/01 11:43:24;;;;;;;20.90;3.70;;;6.70;99.90;;;;;;5022638;28;20203;-68
2023/02/01 11:45:54;;;;;;;22.85;3.10;;;6.60;99.90;;;;;;5029231;28;20056;-70
2023/02/01 11:48:20;;;;;;;24.45;4.18;;;6.60;99.90;;;;;;5030529;28;20048;-70
2023/02/01 11:50:48;;;;;;;24.25;3.72;;;6.60;99.90;;;;;;5030731;28;20069;-71
2023/02/01 11:53:33;;;;;;;24.55;3.88;;;6.60;99.90;;;;;;5008928;28;20041;-72
2023/02/01 11:56:38;;;;;;;19.47;2.87;;;6.60;99.90;;;;;;5021040;28;20041;-73
2023/02/01 11:59:44;;;;;;;16.52;2.80;;;6.60;99.90;;;;;;4937272;28;20318;-70
2023/02/01 12:02:38;;;;;;;22.20;3.58;;;6.60;99.90;;;;;;5004248;28;20084;-72
2023/02/01 12:05:37;;;;;;;16.58;2.72;;;6.60;99.90;;;;;;4993569;28;20512;-72
2023/02/01 12:08:21;;;;;;;20.88;3.35;;;6.50;99.90;;;;;;4993977;28;20038;-73
2023/02/01 12:11:05;;;;;;;18.45;3.83;;;6.40;99.90;;;;;;4994221;28;20130;-72
2023/02/01 12:13:55;;;;;;;16.87;3.03;;;6.40;99.90;;;;;;5009177;28;20049;-71
2023/02/01 12:16:48;;;;;;;20.98;3.88;;;6.40;99.90;;;;;;4993432;28;20049;-72
2023/02/01 12:19:18;;;;;;;18.60;3.38;;;6.40;99.90;;;;;;4989029;28;20037;-72
2023/02/01 12:22:04;;;;;;;27.45;4.00;;;6.50;99.90;;;;;;4992654;28;20421;-72
2023/02/01 12:24:42;;;;;;;23.48;3.63;;;6.50;99.90;;;;;;4990049;28;20406;-72
2023/02/01 12:27:23;;;;;;;23.67;3.75;;;6.60;99.90;;;;;;5008500;28;20080;-73
2023/02/01 12:30:01;;;;;;;18.77;3.03;;;6.60;99.90;;;;;;5010272;28;20045;-73
2023/02/01 12:32:43;;;;;;;22.75;3.85;;;6.70;99.90;;;;;;5001691;28;20041;-74
2023/02/01 12:35:27;;;;;;;29.60;4.32;;;6.80;99.90;;;;;;4992255;28;20072;-73
2023/02/01 12:38:24;;;;;;;20.30;3.80;;;6.90;99.90;;;;;;5006919;28;20046;-73
2023/02/01 12:41:13;;;;;;;21.55;3.35;;;6.90;99.90;;;;;;4991467;28;20148;-73
2023/02/01 12:44:06;;;;;;;14.27;2.75;;;7.00;99.90;;;;;;4988125;28;20045;-74
2023/02/01 12:46:43;;;;;;;19.40;3.78;;;7.10;99.90;;;;;;4996446;28;20038;-71
2023/02/01 12:49:33;;;;;;;22.58;4.15;;;7.10;99.90;;;;;;5014207;28;20038;-73
2023/02/01 12:52:03;;;;;;;17.65;3.63;;;7.20;99.90;;;;;;4999309;28;20049;-76
2023/02/01 12:54:45;;;;;;;20.35;3.53;;;7.20;99.90;;;;;;5004755;28;20029;-72
2023/02/01 12:57:30;;;;;;;20.00;4.32;;;7.30;99.90;;;;;;5010814;28;20289;-73
2023/02/01 13:00:25;;;;;;;28.20;3.67;;;7.30;99.90;;;;;;5011816;28;20053;-72
2023/02/01 13:03:09;;;;;;;;;;;7.30;99.90;;;;;;5013447;28;20053;-73
2023/02/01 13:06:04;;;;;;;21.55;3.78;;;7.30;99.90;;;;;;4992259;28;20032;-73
2023/02/01 13:08:54;;;;;;;25.45;5.10;;;7.30;99.90;;;;;;5012269;28;20030;-73
2023/02/01 13:11:29;;;;;;;21.98;4.13;;;7.40;99.90;;;;;;5013188;28;20035;-72
2023/02/01 13:14:28;;;;;;;23.85;3.55;;;7.50;99.90;;;;;;5024413;28;20049;-72
2023/02/01 13:17:02;;;;;;;24.88;4.63;;;7.40;99.90;;;;;;5004309;28;20054;-71
2023/02/01 13:19:46;;;;;;;24.40;3.45;;;7.40;99.90;;;;;;5006617;28;20038;-72
2023/02/01 13:22:31;;;;;;;19.23;3.97;;;7.30;99.90;;;;;;5024378;28;20046;-71
2023/02/01 13:25:47;;;;;;;20.23;3.95;;;7.20;99.90;;;;;;5007245;28;20057;-71
2023/02/01 13:28:19;;;;;;;23.95;3.92;;;7.20;99.90;;;;;;5006250;28;20069;-71
2023/02/01 13:30:48;;;;;;;23.15;3.70;;;7.20;99.90;;;;;;5022374;28;20042;-71
2023/02/01 13:33:19;;;;;;;22.85;3.63;;;7.20;99.90;;;;;;5001272;28;20038;-71
2023/02/01 13:36:30;;;;;;;25.63;4.28;;;7.20;99.90;;;;;;5002284;28;20084;-71
2023/02/01 13:39:21;;;;;;;22.95;3.30;;;7.20;99.90;;;;;;4992527;28;20084;-70
2023/02/01 13:42:01;;;;;;;23.60;4.30;;;7.30;99.90;;;;;;5022187;28;20095;-70
2023/02/01 13:44:36;;;;;;;20.67;3.45;;;7.30;99.90;;;;;;5005348;28;20058;-70
2023/02/01 13:47:09;;;;;;;26.35;4.50;;;7.30;99.90;;;;;;5001867;28;20045;-70
2023/02/01 13:49:39;;;;;;;23.13;4.00;;;7.40;99.90;;;;;;5000634;28;20101;-70